Naples, FL

8:38 PM EDT on September 22, 2014 (GMT -0400)
Foxfire | Change Station
CLOSE
Current Station
Personal Weather Station
Location: Naples, FL
Elevation: 40 ft
Nearby Weather Stations

Elev 40 ft 26.14 °N, 81.75 °W | Updated 10 minutes ago

Clear
Clear
75.5 °F
Feels Like 75 °F
N
0.0
Wind Variable Wind from NNE

Today
High -- | Low -- °F
--% Chance of Precip.
Yesterday
High -- | Low -- °F
Precip. -- in
7:15 AM 7:23 PM
Waning Crescent, 1% visible
Pressure 30.00 in
Visibility 10.0 miles
Clouds Clear
Heat Index 75 °F
Dew Point 72 °F
Humidity 89%
Rainfall 0.00 in
Snow Depth Not available.
UV 0 out of 12
Pollen 2.20 out of 12
Air Quality Not available.
Flu Activity Not available.
METAR KAPF 222353Z 02009KT 10SM CLR 24/22 A3000 RMK AO2 LTG DSNT SE AND S SLP158 T02440217 10311 20244 53015

More Conditions Fewer Conditions

Pressure 30.00 in
Visibility 10.0 miles
Clouds Clear
Heat Index 75 °F
Dew Point 72 °F
Humidity 89%
Rainfall 0.00 in
Snow Depth Not available.
UV 0 out of 12
Pollen 2.20 out of 12
Air Quality Not available.
Flu Activity Not available.
METAR KAPF 222353Z 02009KT 10SM CLR 24/22 A3000 RMK AO2 LTG DSNT SE AND S SLP158 T02440217 10311 20244 53015

More Conditions Fewer Conditions

10-Day Weather Forecast

Almanac

Astronomy

Sep. 22, 2014 Rise Set
Actual Time 7:15 AM EDT 7:23 PM EDT
Civil Twilight 6:52 AM EDT 7:46 PM EDT
Nautical Twilight 6:25 AM EDT 8:13 PM EDT
Astronomical Twilight 5:58 AM EDT 8:40 PM EDT
Moon 5:49 AM EDT (9/22) 6:26 PM EDT (9/22)
Length of Visible Light 12h 53m
Length of Day
12h 07m
Tomorrow will be 1m 32s shorter.
Waning Crescent, 1% of the Moon is Illuminated
Today
Waning Crescent
Sep 24
New
Oct 1
First Quarter
Oct 8
Full
Oct 15
Last Quarter

Today's Extremes

State Highs State Lows

Community

WunderPhotos

Upload Photos

1,755,574 photos uploaded!

Nearby

Snow Depth

Station Depth Elevation
No new snow has been reported.

Earthquake Activity

City Distance Mag. Time & Date
No recent earthquake activity has been reported nearby.
Minimum magnitude displayed is 2.5.

Coastal Water Temperatures

Place Temperature
Naples, FL 88.0 °F

Nearby Weather Stations